Time;durP1;ratioP1;P1;durP2;ratioP2;P2;SDS_P1;SDS_P2;PMS_P1;PMS_P2;Temp;Humidity;BMP_temperature;BMP_pressure;BME280_temperature;BME280_humidity;BME280_pressure;Samples;Min_cycle;Max_cycle;Signal;HPM_P1;HPM_P2
2022/08/30 00:03:20;;;;;;;2.15;1.02;;;17.30;99.90;;;;;;5031571;28;20034;-75
2022/08/30 00:05:47;;;;;;;4.18;1.23;;;17.30;99.90;;;;;;5045941;28;20163;-75
2022/08/30 00:08:12;;;;;;;3.55;1.42;;;17.30;99.90;;;;;;5009855;28;20396;-74
2022/08/30 00:10:39;;;;;;;3.47;1.35;;;17.30;99.90;;;;;;5011825;28;20039;-75
2022/08/30 00:13:05;;;;;;;2.97;1.25;;;17.20;99.90;;;;;;5029681;28;20116;-74
2022/08/30 00:15:32;;;;;;;3.72;1.15;;;17.20;99.90;;;;;;5027257;28;20013;-74
2022/08/30 00:17:57;;;;;;;2.95;1.10;;;17.20;99.90;;;;;;5025964;28;20382;-76
2022/08/30 00:20:27;;;;;;;2.47;1.05;;;17.20;99.90;;;;;;5043989;28;20050;-74
2022/08/30 00:22:53;;;;;;;2.47;1.00;;;17.20;99.90;;;;;;5040218;28;20039;-75
2022/08/30 00:25:19;;;;;;;2.47;1.20;;;17.20;99.90;;;;;;5029296;28;20496;-76
2022/08/30 00:27:45;;;;;;;3.10;1.30;;;17.20;99.90;;;;;;5027176;28;20037;-74
2022/08/30 00:30:12;;;;;;;3.17;1.30;;;17.20;99.90;;;;;;5048027;28;20505;-75
2022/08/30 00:32:38;;;;;;;3.42;1.20;;;17.20;99.90;;;;;;5042662;28;20035;-75
2022/08/30 00:35:07;;;;;;;4.18;1.48;;;17.20;99.90;;;;;;5044022;28;20096;-75
2022/08/30 00:37:33;;;;;;;2.17;1.17;;;17.20;99.90;;;;;;5041176;28;20445;-75
2022/08/30 00:39:58;;;;;;;2.85;1.00;;;17.10;99.90;;;;;;5024521;28;20033;-75
2022/08/30 00:42:24;;;;;;;2.28;1.05;;;17.20;99.90;;;;;;5029229;28;20035;-75
2022/08/30 00:44:50;;;;;;;4.53;1.17;;;17.20;99.90;;;;;;5011386;28;20029;-74
2022/08/30 00:47:17;;;;;;;2.22;1.00;;;17.10;99.90;;;;;;5044512;28;20484;-75
2022/08/30 00:49:53;;;;;;;2.00;1.10;;;17.20;99.90;;;;;;5024483;28;20519;-75
2022/08/30 00:52:22;;;;;;;4.93;1.77;;;17.10;99.90;;;;;;5026723;28;20029;-75
2022/08/30 00:54:50;;;;;;;4.38;1.00;;;17.20;99.90;;;;;;5027514;28;20024;-75
2022/08/30 00:57:16;;;;;;;1.70;1.20;;;17.20;99.90;;;;;;5043792;28;20028;-75
2022/08/30 00:59:45;;;;;;;3.65;1.05;;;17.10;99.90;;;;;;5044090;28;20033;-74
2022/08/30 01:02:11;;;;;;;2.42;1.10;;;17.20;99.90;;;;;;5044171;28;20033;-74
2022/08/30 01:04:41;;;;;;;3.72;1.23;;;17.10;99.90;;;;;;5024086;28;20166;-75
2022/08/30 01:07:07;;;;;;;4.68;1.38;;;17.10;99.90;;;;;;5027564;28;20461;-75
2022/08/30 01:09:34;;;;;;;2.67;1.13;;;17.20;99.90;;;;;;5042562;28;20408;-75
2022/08/30 01:12:00;;;;;;;2.47;1.30;;;17.10;99.90;;;;;;5024828;28;20029;-76
2022/08/30 01:14:26;;;;;;;2.55;1.05;;;17.20;99.90;;;;;;5027876;28;20472;-75
2022/08/30 01:16:55;;;;;;;2.38;1.27;;;17.10;99.90;;;;;;5024964;28;20033;-76
2022/08/30 01:19:41;;;;;;;2.55;0.88;;;17.20;99.90;;;;;;5044414;28;20029;-76
2022/08/30 01:22:36;;;;;;;5.93;1.08;;;17.20;99.90;;;;;;5042864;28;20143;-75
2022/08/30 01:25:03;;;;;;;1.83;0.80;;;17.20;99.90;;;;;;5037157;28;20091;-75
2022/08/30 01:27:30;;;;;;;1.92;0.75;;;17.20;99.90;;;;;;5023246;28;20038;-76
2022/08/30 01:29:57;;;;;;;3.53;1.42;;;17.10;99.90;;;;;;5018235;28;20041;-76
2022/08/30 01:32:27;;;;;;;2.65;1.05;;;17.10;99.90;;;;;;5040464;28;20504;-76
2022/08/30 01:34:54;;;;;;;1.85;1.20;;;17.10;99.90;;;;;;5026896;28;20029;-75
2022/08/30 01:37:30;;;;;;;2.20;1.05;;;17.10;99.90;;;;;;5028588;28;20029;-76
2022/08/30 01:39:56;;;;;;;2.85;1.05;;;17.10;99.90;;;;;;5028107;28;20096;-75
2022/08/30 01:42:23;;;;;;;1.80;1.10;;;17.10;99.90;;;;;;5024966;28;20200;-76
2022/08/30 01:44:49;;;;;;;5.80;1.13;;;17.10;99.90;;;;;;5024146;28;20406;-74
2022/08/30 01:47:17;;;;;;;2.72;1.02;;;17.20;99.90;;;;;;5043991;28;20025;-73
2022/08/30 01:49:44;;;;;;;5.32;1.02;;;17.10;99.90;;;;;;5025507;28;21660;-75
2022/08/30 01:52:11;;;;;;;1.17;0.93;;;17.10;99.90;;;;;;5041202;28;20387;-75
2022/08/30 01:54:40;;;;;;;3.38;1.08;;;17.10;99.90;;;;;;5013430;28;20101;-75
2022/08/30 01:57:08;;;;;;;2.05;1.33;;;17.10;99.90;;;;;;5045323;28;20027;-75
2022/08/30 01:59:34;;;;;;;4.75;1.25;;;17.10;99.90;;;;;;5028553;28;20035;-75
2022/08/30 02:02:00;;;;;;;2.97;0.98;;;17.10;99.90;;;;;;5012003;28;20025;-75
2022/08/30 02:04:26;;;;;;;1.45;1.05;;;17.10;99.90;;;;;;5044605;28;20103;-76
2022/08/30 02:06:52;;;;;;;1.23;0.73;;;17.10;99.90;;;;;;5045467;28;20033;-75
2022/08/30 02:09:18;;;;;;;5.32;0.85;;;17.10;99.90;;;;;;5027283;28;20048;-75
2022/08/30 02:11:44;;;;;;;1.73;1.00;;;17.00;99.90;;;;;;5027397;28;20033;-75
2022/08/30 02:14:10;;;;;;;2.00;1.15;;;17.00;99.90;;;;;;5016440;28;20105;-76
2022/08/30 02:16:36;;;;;;;5.57;1.50;;;17.00;99.90;;;;;;5056304;28;20097;-76
2022/08/30 02:19:02;;;;;;;2.55;0.95;;;17.00;99.90;;;;;;5045945;28;20203;-75
2022/08/30 02:21:28;;;;;;;3.08;0.88;;;17.00;99.90;;;;;;5039174;28;20059;-75
2022/08/30 02:23:54;;;;;;;6.10;1.25;;;17.00;99.90;;;;;;5050615;28;20033;-75
2022/08/30 02:26:20;;;;;;;2.72;1.00;;;17.00;99.90;;;;;;5031879;28;20040;-76
2022/08/30 02:28:52;;;;;;;2.10;0.90;;;17.00;99.90;;;;;;5047924;28;20036;-75
2022/08/30 02:31:20;;;;;;;2.28;1.08;;;17.00;99.90;;;;;;5052067;28;20093;-76
2022/08/30 02:33:45;;;;;;;2.08;0.80;;;17.00;99.90;;;;;;5033305;28;20052;-76
2022/08/30 02:36:11;;;;;;;2.38;1.00;;;17.00;99.90;;;;;;5030537;28;20045;-75
2022/08/30 02:38:37;;;;;;;2.25;1.10;;;17.00;99.90;;;;;;5023745;28;20029;-76
2022/08/30 02:41:03;;;;;;;2.85;1.20;;;17.00;99.90;;;;;;5028344;28;20025;-75
2022/08/30 02:43:29;;;;;;;2.40;1.23;;;17.00;99.90;;;;;;5031087;28;20114;-75
2022/08/30 02:45:54;;;;;;;2.03;0.80;;;16.90;99.90;;;;;;5049193;28;20808;-76
2022/08/30 02:48:20;;;;;;;2.42;0.80;;;16.90;99.90;;;;;;5011743;28;20037;-76
2022/08/30 02:50:49;;;;;;;1.90;1.02;;;17.00;99.90;;;;;;5030130;28;20040;-77
2022/08/30 02:53:16;;;;;;;1.80;1.10;;;16.90;99.90;;;;;;5025865;28;20039;-75
2022/08/30 02:55:42;;;;;;;2.95;1.20;;;17.00;99.90;;;;;;5028735;28;20033;-76
2022/08/30 02:58:09;;;;;;;2.78;0.90;;;17.00;99.90;;;;;;5045524;28;20025;-76
2022/08/30 03:00:35;;;;;;;6.68;1.48;;;16.90;99.90;;;;;;5030718;28;20052;-76
2022/08/30 03:03:02;;;;;;;2.28;1.17;;;16.90;99.90;;;;;;5025347;28;20037;-75
2022/08/30 03:05:29;;;;;;;3.72;1.08;;;16.90;99.90;;;;;;5029436;28;20480;-75
2022/08/30 03:07:55;;;;;;;1.85;0.80;;;17.00;99.90;;;;;;5046443;28;20029;-76
2022/08/30 03:10:21;;;;;;;3.97;1.10;;;16.90;99.90;;;;;;5027752;28;20044;-76
2022/08/30 03:12:47;;;;;;;2.33;1.00;;;16.90;99.90;;;;;;5026771;28;20033;-75
2022/08/30 03:15:14;;;;;;;1.83;0.95;;;16.90;99.90;;;;;;5055974;28;20505;-75
2022/08/30 03:17:40;;;;;;;2.92;1.05;;;16.90;99.90;;;;;;5059486;28;20049;-75
2022/08/30 03:20:07;;;;;;;2.58;1.10;;;16.90;99.90;;;;;;5033905;28;20475;-76
2022/08/30 03:22:34;;;;;;;1.75;1.02;;;16.90;99.90;;;;;;5028070;28;20326;-76
2022/08/30 03:25:00;;;;;;;3.22;1.15;;;16.90;99.90;;;;;;5046949;28;20037;-76
2022/08/30 03:27:27;;;;;;;3.97;1.48;;;16.90;99.90;;;;;;5028485;28;20052;-76
2022/08/30 03:29:54;;;;;;;2.85;1.20;;;16.90;99.90;;;;;;5030627;28;20029;-76
2022/08/30 03:32:20;;;;;;;2.50;1.02;;;16.90;99.90;;;;;;5046016;28;20039;-76
2022/08/30 03:34:47;;;;;;;2.30;1.17;;;16.90;99.90;;;;;;5009944;28;20021;-76
2022/08/30 03:37:13;;;;;;;4.38;1.50;;;16.80;99.90;;;;;;5030131;28;20025;-75
2022/08/30 03:39:39;;;;;;;3.20;1.50;;;16.90;99.90;;;;;;5048012;28;20108;-76
2022/08/30 03:42:05;;;;;;;2.80;1.42;;;16.80;99.90;;;;;;5028643;28;20021;-76
2022/08/30 03:44:31;;;;;;;2.38;1.20;;;16.80;99.90;;;;;;5027129;28;20087;-76
2022/08/30 03:46:57;;;;;;;2.35;1.48;;;16.80;99.90;;;;;;5028342;28;20037;-76
2022/08/30 03:49:23;;;;;;;2.42;1.23;;;16.80;99.90;;;;;;5047045;28;20037;-75
2022/08/30 03:51:49;;;;;;;3.90;1.65;;;16.80;99.90;;;;;;5048448;28;20039;-75
2022/08/30 03:54:16;;;;;;;3.25;1.30;;;16.70;99.90;;;;;;5044894;28;20086;-76
2022/08/30 03:56:41;;;;;;;2.47;1.20;;;16.70;99.90;;;;;;5017328;28;20037;-76
2022/08/30 03:59:07;;;;;;;3.58;1.10;;;16.70;99.90;;;;;;5007248;28;20037;-75
2022/08/30 04:01:33;;;;;;;2.08;1.00;;;16.70;99.90;;;;;;5028385;28;20033;-75
2022/08/30 04:03:58;;;;;;;3.65;1.23;;;16.70;99.90;;;;;;5008308;28;20032;-77
2022/08/30 04:06:24;;;;;;;3.30;1.13;;;16.70;99.90;;;;;;5030184;28;20112;-75
2022/08/30 04:08:50;;;;;;;1.80;1.00;;;16.60;99.90;;;;;;5044426;28;20059;-75
2022/08/30 04:11:16;;;;;;;2.35;1.30;;;16.70;99.90;;;;;;5029355;28;20434;-75
2022/08/30 04:13:42;;;;;;;2.58;1.10;;;16.60;99.90;;;;;;5028577;28;20051;-76
2022/08/30 04:16:08;;;;;;;4.40;1.75;;;16.60;99.90;;;;;;5027668;28;20466;-75
2022/08/30 04:18:35;;;;;;;5.93;1.30;;;16.60;99.90;;;;;;5024915;28;20507;-75
2022/08/30 04:21:02;;;;;;;1.75;1.17;;;16.50;99.90;;;;;;5043638;28;20040;-75
2022/08/30 04:23:27;;;;;;;2.33;1.15;;;16.60;99.90;;;;;;5045358;28;20464;-76
2022/08/30 04:25:53;;;;;;;2.70;1.20;;;16.60;99.90;;;;;;5010910;28;20049;-76
2022/08/30 04:28:19;;;;;;;2.72;1.58;;;16.60;99.90;;;;;;5045146;28;20044;-76
2022/08/30 04:30:45;;;;;;;1.95;1.15;;;16.50;99.90;;;;;;5046910;28;20037;-76
2022/08/30 04:33:13;;;;;;;2.38;1.35;;;16.60;99.90;;;;;;5028884;28;20071;-76
2022/08/30 04:35:44;;;;;;;3.30;1.77;;;16.50;99.90;;;;;;5044371;28;20025;-76
2022/08/30 04:38:12;;;;;;;2.25;1.20;;;16.60;99.90;;;;;;5002333;28;20018;-75
2022/08/30 04:40:41;;;;;;;2.92;1.40;;;16.50;99.90;;;;;;5038313;28;20052;-76
2022/08/30 04:43:07;;;;;;;3.42;1.38;;;16.50;99.90;;;;;;5017338;28;20059;-75
2022/08/30 04:45:33;;;;;;;3.50;1.17;;;16.50;99.90;;;;;;5036471;28;20112;-76
2022/08/30 04:47:58;;;;;;;2.17;1.27;;;16.50;99.90;;;;;;5044412;28;20037;-75
2022/08/30 04:50:24;;;;;;;4.90;2.13;;;16.50;99.90;;;;;;5025159;28;20453;-76
2022/08/30 04:52:50;;;;;;;2.33;1.35;;;16.60;99.90;;;;;;5027467;28;20619;-75
2022/08/30 04:55:16;;;;;;;2.67;1.38;;;16.50;99.90;;;;;;5045328;28;20028;-73
2022/08/30 04:57:42;;;;;;;4.03;1.38;;;16.50;99.90;;;;;;5026186;28;20039;-74
2022/08/30 05:00:12;;;;;;;4.43;1.00;;;16.50;99.90;;;;;;5024732;28;20041;-78
2022/08/30 05:02:39;;;;;;;2.90;1.27;;;16.80;99.90;;;;;;5036865;28;20024;-73
2022/08/30 05:07:49;;;;;;;2.05;1.30;;;17.00;99.90;;;;;;5043316;28;20033;-71
2022/08/30 05:10:15;;;;;;;2.85;1.48;;;16.80;99.90;;;;;;5022034;28;20033;-76
2022/08/30 05:12:42;;;;;;;5.05;1.50;;;16.70;99.90;;;;;;5043010;28;20021;-76
2022/08/30 05:15:08;;;;;;;3.63;1.60;;;16.70;99.90;;;;;;5023749;28;20361;-78
2022/08/30 05:17:36;;;;;;;2.42;1.48;;;16.70;99.90;;;;;;5032124;28;20025;-77
2022/08/30 05:20:03;;;;;;;3.15;1.30;;;16.60;99.90;;;;;;5037837;28;20066;-76
2022/08/30 05:22:29;;;;;;;3.25;1.50;;;16.70;99.90;;;;;;5031719;28;20056;-77
2022/08/30 05:24:55;;;;;;;3.13;1.60;;;16.70;99.90;;;;;;5020783;28;20556;-78
2022/08/30 05:27:20;;;;;;;4.32;1.63;;;16.70;99.90;;;;;;5045002;28;20059;-78
2022/08/30 05:29:46;;;;;;;4.32;1.60;;;16.70;99.90;;;;;;5007782;28;20029;-77
2022/08/30 05:32:12;;;;;;;3.53;1.48;;;16.70;99.90;;;;;;5021594;28;20074;-76
2022/08/30 05:34:37;;;;;;;2.40;1.45;;;16.70;99.90;;;;;;5020499;28;20029;-76
2022/08/30 05:37:03;;;;;;;3.85;1.85;;;16.70;99.90;;;;;;5021324;28;20032;-76
2022/08/30 05:39:30;;;;;;;3.42;1.50;;;16.70;99.90;;;;;;5042982;28;20057;-76
2022/08/30 05:41:57;;;;;;;3.60;1.40;;;16.70;99.90;;;;;;5028867;28;20025;-77
2022/08/30 05:44:24;;;;;;;7.20;1.60;;;16.70;99.90;;;;;;5011786;28;20044;-76
2022/08/30 05:46:50;;;;;;;2.63;1.20;;;16.70;99.90;;;;;;5047567;28;20037;-77
2022/08/30 05:49:16;;;;;;;3.92;1.45;;;16.70;99.90;;;;;;5043613;28;20036;-79
2022/08/30 05:51:42;;;;;;;6.35;1.50;;;16.70;99.90;;;;;;5007299;28;20398;-73
2022/08/30 05:54:07;;;;;;;3.78;1.55;;;16.70;99.90;;;;;;5042333;28;20031;-77
2022/08/30 05:56:36;;;;;;;5.57;1.50;;;16.70;99.90;;;;;;5043242;28;20515;-75
2022/08/30 05:59:03;;;;;;;4.20;1.95;;;16.90;99.90;;;;;;5027949;28;20048;-76
2022/08/30 06:01:30;;;;;;;6.95;1.83;;;16.90;99.90;;;;;;5044784;28;20619;-73
2022/08/30 06:03:57;;;;;;;3.80;1.40;;;16.90;99.90;;;;;;5030032;28;20044;-73
2022/08/30 06:06:23;;;;;;;6.35;1.40;;;16.90;99.90;;;;;;5031024;28;20417;-76
2022/08/30 06:08:49;;;;;;;2.95;1.20;;;17.00;99.90;;;;;;5029382;28;20031;-75
2022/08/30 06:11:18;;;;;;;3.20;1.55;;;17.40;99.90;;;;;;5006535;28;20028;-76
2022/08/30 06:13:46;;;;;;;6.57;1.80;;;17.30;99.90;;;;;;5014709;28;20522;-76
2022/08/30 06:16:14;;;;;;;5.35;1.50;;;17.30;99.90;;;;;;5045916;28;20035;-75
2022/08/30 06:18:42;;;;;;;3.72;1.20;;;17.30;99.90;;;;;;5030432;28;20025;-79
2022/08/30 06:21:08;;;;;;;4.15;1.63;;;17.30;99.90;;;;;;5027226;28;20520;-78
2022/08/30 06:23:34;;;;;;;5.20;1.50;;;17.30;99.90;;;;;;5027787;28;20025;-74
2022/08/30 06:26:06;;;;;;;3.70;1.35;;;17.30;99.90;;;;;;5044647;28;20401;-76
2022/08/30 06:28:34;;;;;;;2.08;1.30;;;17.40;99.90;;;;;;5043618;28;20082;-74
2022/08/30 06:31:00;;;;;;;20.48;2.20;;;17.40;99.90;;;;;;5045218;28;20037;-77
2022/08/30 06:33:25;;;;;;;3.28;1.35;;;17.50;99.90;;;;;;5029175;28;20032;-78
2022/08/30 06:35:53;;;;;;;1.80;1.38;;;17.50;99.90;;;;;;5029650;28;20025;-77
2022/08/30 06:38:19;;;;;;;3.78;1.50;;;17.50;99.90;;;;;;5013896;28;20029;-76
2022/08/30 06:40:44;;;;;;;4.30;1.70;;;17.50;99.90;;;;;;5029495;28;20087;-77
2022/08/30 06:43:10;;;;;;;5.35;1.60;;;17.60;99.90;;;;;;5057135;28;20052;-74
2022/08/30 06:45:36;;;;;;;3.58;1.60;;;17.60;99.90;;;;;;5041116;28;20104;-76
2022/08/30 06:48:02;;;;;;;3.53;1.50;;;17.60;99.90;;;;;;5033111;28;20067;-76
2022/08/30 06:50:27;;;;;;;4.80;1.40;;;17.70;99.90;;;;;;5049004;28;20052;-77
2022/08/30 06:52:53;;;;;;;4.50;1.40;;;17.70;99.90;;;;;;5031747;28;20037;-77
2022/08/30 06:55:19;;;;;;;4.35;1.50;;;17.70;99.90;;;;;;5015439;28;20024;-77
2022/08/30 06:57:46;;;;;;;3.15;1.30;;;17.80;99.90;;;;;;5015413;28;20029;-76
2022/08/30 07:00:15;;;;;;;4.53;1.48;;;17.80;99.90;;;;;;5048015;28;20040;-78
2022/08/30 07:02:41;;;;;;;2.35;1.05;;;17.80;99.90;;;;;;5032008;28;20044;-77
2022/08/30 07:05:10;;;;;;;5.97;1.70;;;17.80;99.90;;;;;;5049904;28;20306;-80
2022/08/30 07:07:36;;;;;;;2.83;1.60;;;17.80;99.90;;;;;;5049565;28;20111;-75
2022/08/30 07:10:04;;;;;;;3.92;1.67;;;17.90;99.90;;;;;;5028340;28;20120;-76
2022/08/30 07:12:30;;;;;;;3.70;1.40;;;17.90;99.90;;;;;;5029236;28;20072;-78
2022/08/30 07:14:56;;;;;;;3.03;1.30;;;17.90;99.90;;;;;;5032321;28;20167;-77
2022/08/30 07:20:06;;;;;;;3.40;1.50;;;17.90;99.90;;;;;;5053094;28;20051;-78
2022/08/30 07:22:32;;;;;;;2.55;1.23;;;17.90;99.90;;;;;;5032840;28;20049;-77
2022/08/30 07:24:58;;;;;;;2.40;0.90;;;18.00;99.90;;;;;;5032112;28;20029;-76
2022/08/30 07:27:24;;;;;;;3.25;1.52;;;18.10;99.90;;;;;;5030807;28;20142;-76
2022/08/30 07:29:50;;;;;;;2.50;1.38;;;18.10;99.90;;;;;;5028444;28;20540;-77
2022/08/30 07:32:16;;;;;;;2.00;1.30;;;18.20;99.90;;;;;;5011468;28;20116;-76
2022/08/30 07:34:42;;;;;;;2.55;1.17;;;18.30;99.90;;;;;;5032458;28;20618;-77
2022/08/30 07:37:08;;;;;;;3.30;1.20;;;18.20;99.90;;;;;;5049070;28;20040;-77
2022/08/30 07:39:34;;;;;;;3.28;1.15;;;18.30;99.90;;;;;;5029137;28;20021;-78
2022/08/30 07:42:00;;;;;;;4.60;1.70;;;18.40;99.90;;;;;;5045422;28;20199;-78
2022/08/30 07:44:26;;;;;;;2.60;1.20;;;18.40;99.90;;;;;;5013169;28;20032;-77
2022/08/30 07:46:51;;;;;;;4.40;2.05;;;18.40;99.90;;;;;;5029161;28;20037;-77
2022/08/30 07:49:18;;;;;;;1.80;1.10;;;18.40;99.90;;;;;;5047022;28;20104;-78
2022/08/30 07:51:45;;;;;;;2.67;1.48;;;18.50;99.90;;;;;;5008382;28;20275;-78
2022/08/30 07:54:11;;;;;;;2.00;1.02;;;18.60;99.90;;;;;;5034569;28;20315;-79
2022/08/30 07:56:36;;;;;;;1.92;1.20;;;18.60;99.90;;;;;;5019158;28;20104;-81
2022/08/30 07:59:03;;;;;;;5.40;1.33;;;18.60;99.90;;;;;;5049127;28;20032;-77
2022/08/30 08:01:30;;;;;;;2.15;1.30;;;18.60;99.90;;;;;;5028261;28;20445;-78
2022/08/30 08:03:55;;;;;;;2.38;1.00;;;18.60;99.90;;;;;;5046459;28;20817;-76
2022/08/30 08:06:23;;;;;;;4.78;1.30;;;18.70;99.90;;;;;;5030095;28;20040;-77
2022/08/30 08:08:49;;;;;;;4.20;1.30;;;18.70;99.90;;;;;;5031015;28;20562;-76
2022/08/30 08:11:17;;;;;;;4.30;1.25;;;18.70;99.90;;;;;;5048217;28;20025;-78
2022/08/30 08:13:44;;;;;;;4.13;1.58;;;18.70;99.90;;;;;;5029993;28;20028;-77
2022/08/30 08:16:10;;;;;;;5.78;1.55;;;18.80;99.90;;;;;;5048032;28;20021;-77
2022/08/30 08:18:36;;;;;;;2.85;1.40;;;18.80;99.90;;;;;;5027941;28;20029;-76
2022/08/30 08:21:02;;;;;;;1.98;1.00;;;18.90;99.90;;;;;;5042973;28;20032;-76
2022/08/30 08:23:28;;;;;;;2.67;1.10;;;18.90;99.90;;;;;;5033397;28;20568;-76
2022/08/30 08:25:54;;;;;;;2.72;1.30;;;18.90;99.90;;;;;;5011796;28;22230;-77
2022/08/30 08:28:20;;;;;;;3.53;1.25;;;18.90;99.90;;;;;;5028633;28;20098;-77
2022/08/30 08:30:48;;;;;;;2.92;1.20;;;18.80;99.90;;;;;;5028621;28;20457;-77
2022/08/30 08:33:14;;;;;;;2.08;1.10;;;18.80;99.90;;;;;;5029685;28;20072;-80
2022/08/30 08:35:40;;;;;;;2.75;0.90;;;18.90;99.90;;;;;;5028923;28;20129;-77
2022/08/30 08:38:06;;;;;;;3.15;1.10;;;19.00;99.90;;;;;;5026587;28;20079;-77
2022/08/30 08:40:42;;;;;;;4.50;1.38;;;19.00;99.90;;;;;;5047688;28;20032;-78
2022/08/30 08:43:12;;;;;;;3.78;1.00;;;19.00;99.90;;;;;;5028884;28;20112;-78
2022/08/30 08:46:04;;;;;;;1.83;0.93;;;19.10;99.90;;;;;;5031247;28;20021;-79
2022/08/30 08:48:32;;;;;;;4.28;0.90;;;19.20;99.90;;;;;;5046962;28;20040;-76
2022/08/30 08:53:55;;;;;;;1.92;0.90;;;19.20;99.90;;;;;;5048106;28;20058;-78
2022/08/30 08:56:21;;;;;;;2.60;0.80;;;19.30;99.90;;;;;;5028865;28;20028;-76
2022/08/30 08:58:56;;;;;;;2.75;1.00;;;19.40;99.90;;;;;;5026141;28;20389;-79
2022/08/30 09:01:26;;;;;;;3.33;1.40;;;19.60;99.90;;;;;;5022767;28;20116;-77
2022/08/30 09:03:53;;;;;;;3.97;1.27;;;19.60;99.90;;;;;;5045058;28;20037;-77
2022/08/30 09:06:37;;;;;;;1.20;0.75;;;19.70;99.90;;;;;;5028377;28;20033;-77
2022/08/30 09:09:03;;;;;;;1.33;0.98;;;19.80;99.90;;;;;;5029407;28;20025;-76
2022/08/30 09:11:33;;;;;;;2.50;1.00;;;19.80;99.90;;;;;;5046773;28;20032;-79
2022/08/30 09:13:59;;;;;;;2.35;0.80;;;19.80;99.90;;;;;;5049000;28;20091;-75
2022/08/30 09:16:44;;;;;;;0.90;0.80;;;19.90;99.90;;;;;;5046805;28;20029;-76
2022/08/30 09:19:09;;;;;;;1.58;0.77;;;19.90;99.90;;;;;;5006864;28;20562;-76
2022/08/30 09:21:36;;;;;;;2.05;1.13;;;19.90;99.90;;;;;;5043759;28;20029;-77
2022/08/30 09:24:06;;;;;;;1.38;0.60;;;19.90;99.90;;;;;;5031199;28;20043;-76
2022/08/30 09:26:37;;;;;;;2.40;0.90;;;20.00;99.90;;;;;;5028265;28;20056;-76
2022/08/30 09:29:04;;;;;;;;;;;20.00;99.90;;;;;;5046939;28;20080;-77
2022/08/30 09:31:52;;;;;;;2.80;0.93;;;20.00;99.90;;;;;;5014000;28;19923;-77
2022/08/30 09:34:21;;;;;;;2.13;1.10;;;20.00;99.90;;;;;;5012738;28;20159;-78
2022/08/30 09:36:50;;;;;;;1.67;0.98;;;19.90;99.90;;;;;;5035075;28;20443;-78
2022/08/30 09:39:29;;;;;;;2.63;1.00;;;19.70;99.90;;;;;;5034429;28;20035;-77
2022/08/30 09:42:13;;;;;;;3.63;1.00;;;19.60;99.90;;;;;;5016351;28;20124;-77
2022/08/30 09:44:39;;;;;;;5.13;1.13;;;19.50;99.90;;;;;;5032675;28;20040;-77
2022/08/30 09:47:23;;;;;;;5.53;1.00;;;19.70;99.90;;;;;;5033222;28;20029;-77
2022/08/30 09:49:49;;;;;;;2.35;0.70;;;19.70;99.90;;;;;;5034048;28;20064;-76
2022/08/30 09:52:37;;;;;;;1.10;0.70;;;19.80;99.90;;;;;;5029713;28;20025;-77
2022/08/30 09:55:13;;;;;;;1.15;0.90;;;19.90;99.90;;;;;;5017373;28;20025;-78
2022/08/30 09:58:06;;;;;;;2.00;0.82;;;19.90;99.90;;;;;;5017752;28;20029;-77
2022/08/30 10:00:39;;;;;;;2.33;0.73;;;20.00;99.90;;;;;;5034509;28;20028;-78
2022/08/30 10:03:23;;;;;;;2.00;0.98;;;20.00;99.90;;;;;;5047873;28;20037;-77
2022/08/30 10:06:15;;;;;;;1.58;0.80;;;19.90;99.90;;;;;;5015482;28;20040;-78
2022/08/30 10:08:44;;;;;;;1.75;0.70;;;19.90;99.90;;;;;;5043554;28;20043;-77
2022/08/30 10:11:20;;;;;;;2.10;1.00;;;19.90;99.90;;;;;;5020762;28;20035;-76
2022/08/30 10:14:04;;;;;;;2.35;1.00;;;19.90;99.90;;;;;;5038437;28;20029;-76
2022/08/30 10:16:54;;;;;;;1.35;0.80;;;19.90;99.90;;;;;;5031611;28;20076;-77
2022/08/30 10:19:28;;;;;;;1.40;0.70;;;19.90;99.90;;;;;;5032351;28;20276;-76
2022/08/30 10:21:57;;;;;;;2.08;1.23;;;19.80;99.90;;;;;;5030307;28;20721;-77
2022/08/30 10:24:50;;;;;;;2.13;1.05;;;19.80;99.90;;;;;;5034258;28;20111;-78
2022/08/30 10:27:21;;;;;;;2.72;1.10;;;19.80;99.90;;;;;;5011089;28;20122;-78
2022/08/30 10:30:05;;;;;;;2.25;1.10;;;19.70;99.90;;;;;;5048365;28;20056;-79
2022/08/30 10:32:36;;;;;;;2.38;1.27;;;19.60;99.90;;;;;;5015728;28;20404;-77
2022/08/30 10:35:22;;;;;;;2.25;1.38;;;19.70;99.90;;;;;;5031271;28;20025;-73
2022/08/30 10:37:59;;;;;;;2.25;0.98;;;19.80;99.90;;;;;;5032025;28;20020;-70
2022/08/30 10:43:56;;;;;;;1.02;0.90;;;19.90;99.90;;;;;;5033352;28;20036;-77
2022/08/30 10:46:52;;;;;;;2.33;1.20;;;20.00;99.90;;;;;;5048711;28;20025;-79
2022/08/30 10:49:21;;;;;;;3.58;1.10;;;20.10;99.90;;;;;;5036660;28;20448;-77
2022/08/30 10:52:16;;;;;;;9.68;1.50;;;20.10;99.90;;;;;;5034998;28;20385;-77
2022/08/30 10:54:49;;;;;;;1.40;0.80;;;20.20;99.90;;;;;;4994930;28;20144;-77
2022/08/30 10:57:16;;;;;;;1.27;0.95;;;20.20;99.90;;;;;;5051677;28;20108;-78
2022/08/30 10:59:51;;;;;;;1.92;1.02;;;20.20;99.90;;;;;;5017095;28;20040;-77
2022/08/30 11:02:36;;;;;;;2.08;1.00;;;20.30;99.90;;;;;;5033703;28;20048;-77
2022/08/30 11:05:39;;;;;;;2.05;0.88;;;20.40;99.90;;;;;;5031152;28;20033;-78
2022/08/30 11:08:27;;;;;;;2.35;1.10;;;20.50;99.90;;;;;;5012015;28;20028;-79
2022/08/30 11:11:11;;;;;;;3.08;1.35;;;20.50;99.90;;;;;;5032987;28;20047;-76
2022/08/30 11:13:40;;;;;;;2.33;1.63;;;20.70;99.90;;;;;;5032097;28;20033;-75
2022/08/30 11:16:14;;;;;;;3.45;1.20;;;20.70;99.90;;;;;;5030911;28;20040;-77
2022/08/30 11:18:55;;;;;;;3.40;1.20;;;20.70;99.90;;;;;;5038503;28;20124;-77
2022/08/30 11:21:34;;;;;;;3.70;1.00;;;20.70;99.90;;;;;;5050109;28;20108;-77
2022/08/30 11:24:08;;;;;;;2.17;1.10;;;20.60;99.90;;;;;;5028789;28;20071;-76
2022/08/30 11:26:49;;;;;;;2.63;0.95;;;20.60;99.90;;;;;;5050235;28;20607;-78
2022/08/30 11:29:33;;;;;;;2.80;1.10;;;20.60;99.90;;;;;;5028618;28;20033;-77
2022/08/30 11:32:11;;;;;;;4.30;1.40;;;20.50;99.90;;;;;;5017146;28;20350;-76
2022/08/30 11:34:46;;;;;;;3.03;1.02;;;20.40;99.90;;;;;;5043967;28;20031;-75
2022/08/30 11:37:34;;;;;;;2.50;1.10;;;20.40;99.90;;;;;;5025657;28;20068;-78
2022/08/30 11:40:05;;;;;;;4.82;1.20;;;20.50;99.90;;;;;;5033077;28;20507;-77
2022/08/30 11:42:33;;;;;;;;;;;20.50;99.90;;;;;;5042815;28;20024;-76
2022/08/30 11:45:26;;;;;;;2.58;1.23;;;20.50;99.90;;;;;;5030550;28;19913;-77
2022/08/30 11:48:06;;;;;;;2.72;1.30;;;20.60;99.90;;;;;;5012283;28;20048;-77
2022/08/30 11:50:39;;;;;;;3.35;1.02;;;20.50;99.90;;;;;;5032499;28;20578;-77
2022/08/30 11:53:35;;;;;;;2.55;1.33;;;20.40;99.90;;;;;;5016380;28;20638;-76
2022/08/30 11:56:13;;;;;;;4.20;1.30;;;20.50;99.90;;;;;;4991645;28;20047;-76
2022/08/30 11:59:06;;;;;;;9.95;2.92;;;20.50;99.90;;;;;;5055467;28;20314;-78
2022/08/30 12:01:42;;;;;;;5.45;2.28;;;20.60;99.90;;;;;;5017214;28;20047;-78
2022/08/30 12:04:16;;;;;;;8.18;2.20;;;20.90;99.90;;;;;;5050665;28;20029;-80
2022/08/30 12:06:41;;;;;;;10.70;3.47;;;21.20;99.90;;;;;;5033309;28;20028;-76
2022/08/30 12:09:14;;;;;;;4.05;1.80;;;21.20;99.90;;;;;;5031282;28;20070;-78
2022/08/30 12:11:57;;;;;;;2.95;0.93;;;21.50;99.90;;;;;;5032566;28;20029;-77
2022/08/30 12:14:47;;;;;;;2.40;0.98;;;22.10;98.30;;;;;;5029713;28;20024;-78
2022/08/30 12:20:27;;;;;;;1.23;0.80;;;23.20;96.30;;;;;;5046323;28;20511;-77
2022/08/30 12:22:54;;;;;;;;;;;23.40;95.00;;;;;;5048438;28;20039;-78
2022/08/30 12:25:29;;;;;;;2.33;1.10;;;23.00;94.80;;;;;;5045546;28;19913;-76
2022/08/30 12:28:20;;;;;;;1.98;1.00;;;22.90;94.70;;;;;;5028490;28;20099;-77
2022/08/30 12:30:46;;;;;;;4.32;0.90;;;22.70;95.60;;;;;;5029757;28;20033;-78
2022/08/30 12:33:21;;;;;;;1.55;0.90;;;23.30;94.50;;;;;;5049840;28;20033;-76
2022/08/30 12:35:47;;;;;;;1.98;0.95;;;23.00;94.00;;;;;;5048566;28;20032;-78
2022/08/30 12:38:22;;;;;;;3.20;0.82;;;23.20;93.70;;;;;;5013639;28;20029;-78
2022/08/30 12:40:51;;;;;;;3.42;1.10;;;23.30;94.00;;;;;;5047319;28;20027;-77
2022/08/30 12:43:27;;;;;;;2.30;1.05;;;23.40;94.30;;;;;;5049087;28;20261;-78
2022/08/30 12:45:56;;;;;;;3.30;1.13;;;23.90;92.60;;;;;;5049872;28;20025;-79
2022/08/30 12:48:22;;;;;;;1.00;0.90;;;24.10;92.20;;;;;;5049273;28;20032;-76
2022/08/30 12:50:52;;;;;;;1.98;1.00;;;24.30;92.10;;;;;;5031943;28;20338;-76
2022/08/30 12:53:32;;;;;;;2.83;1.23;;;24.60;91.60;;;;;;5047111;28;20037;-77
2022/08/30 12:56:02;;;;;;;2.55;1.17;;;25.40;90.50;;;;;;5045414;28;20052;-74
2022/08/30 12:58:48;;;;;;;1.58;0.90;;;25.70;87.00;;;;;;5048083;28;20041;-77
2022/08/30 13:01:19;;;;;;;1.38;0.80;;;26.30;85.80;;;;;;5029422;28;20108;-75
2022/08/30 13:03:59;;;;;;;1.30;1.00;;;27.00;81.10;;;;;;5048399;28;20370;-76
2022/08/30 13:06:48;;;;;;;1.67;0.90;;;27.50;78.50;;;;;;5030004;28;20060;-74
2022/08/30 13:09:37;;;;;;;1.45;0.80;;;28.50;74.90;;;;;;5029095;28;20020;-77
2022/08/30 13:12:20;;;;;;;3.35;1.10;;;29.40;71.90;;;;;;5029212;28;20107;-76
2022/08/30 13:14:46;;;;;;;1.77;0.70;;;29.30;67.40;;;;;;5046747;28;20488;-76
2022/08/30 13:17:18;;;;;;;1.23;0.80;;;29.20;66.80;;;;;;5031551;28;20033;-76
2022/08/30 13:20:00;;;;;;;3.00;0.90;;;28.60;67.20;;;;;;5030696;28;20023;-77